sensor_id;sensor_type;location;lat;lon;timestamp;pressure;altitude;pressure_sealevel;temperature;humidity
8253;BME280;61313;48.396;10.008;2024-01-06T00:01:21;94979.63;;;7.35;78.40
8253;BME280;61313;48.396;10.008;2024-01-06T00:03:46;94989.13;;;7.52;78.22
8253;BME280;61313;48.396;10.008;2024-01-06T00:06:13;94979.84;;;7.31;78.86
8253;BME280;61313;48.396;10.008;2024-01-06T00:08:39;94987.00;;;7.27;78.83
8253;BME280;61313;48.396;10.008;2024-01-06T00:11:04;94979.63;;;7.35;78.27
8253;BME280;61313;48.396;10.008;2024-01-06T00:13:29;94983.53;;;7.27;78.94
8253;BME280;61313;48.396;10.008;2024-01-06T00:15:55;94978.00;;;7.33;79.05
8253;BME280;61313;48.396;10.008;2024-01-06T00:18:20;94971.69;;;7.21;79.23
8253;BME280;61313;48.396;10.008;2024-01-06T00:20:46;94970.84;;;7.36;77.95
8253;BME280;61313;48.396;10.008;2024-01-06T00:23:11;94966.75;;;7.32;77.85
8253;BME280;61313;48.396;10.008;2024-01-06T00:25:37;94975.38;;;7.49;77.34
8253;BME280;61313;48.396;10.008;2024-01-06T00:28:02;94974.97;;;7.40;76.52
8253;BME280;61313;48.396;10.008;2024-01-06T00:30:27;94978.34;;;7.42;75.76
8253;BME280;61313;48.396;10.008;2024-01-06T00:32:53;94983.75;;;7.39;74.94
8253;BME280;61313;48.396;10.008;2024-01-06T00:35:18;94981.22;;;7.38;75.29
8253;BME280;61313;48.396;10.008;2024-01-06T00:37:44;94982.22;;;7.35;75.41
8253;BME280;61313;48.396;10.008;2024-01-06T00:40:09;94984.25;;;7.30;74.40
8253;BME280;61313;48.396;10.008;2024-01-06T00:42:35;94982.88;;;7.23;74.25
8253;BME280;61313;48.396;10.008;2024-01-06T00:45:00;94989.09;;;7.36;74.41
8253;BME280;61313;48.396;10.008;2024-01-06T00:47:25;94986.34;;;7.39;74.39
8253;BME280;61313;48.396;10.008;2024-01-06T00:49:51;94983.31;;;7.31;74.12
8253;BME280;61313;48.396;10.008;2024-01-06T00:52:16;94990.13;;;7.34;73.94
8253;BME280;61313;48.396;10.008;2024-01-06T00:54:42;94981.00;;;7.25;74.39
8253;BME280;61313;48.396;10.008;2024-01-06T00:57:07;94989.84;;;7.22;74.72
8253;BME280;61313;48.396;10.008;2024-01-06T00:59:33;94994.06;;;7.25;73.58
8253;BME280;61313;48.396;10.008;2024-01-06T01:01:58;95003.13;;;7.18;74.31
8253;BME280;61313;48.396;10.008;2024-01-06T01:04:23;94997.78;;;7.21;74.33
8253;BME280;61313;48.396;10.008;2024-01-06T01:06:49;94996.00;;;7.21;74.23
8253;BME280;61313;48.396;10.008;2024-01-06T01:09:14;95000.16;;;7.08;74.18
8253;BME280;61313;48.396;10.008;2024-01-06T01:11:40;95011.91;;;7.17;74.51
8253;BME280;61313;48.396;10.008;2024-01-06T01:14:06;95009.34;;;7.15;74.81
8253;BME280;61313;48.396;10.008;2024-01-06T01:16:31;95009.88;;;7.22;75.30
8253;BME280;61313;48.396;10.008;2024-01-06T01:18:59;95013.78;;;7.31;73.97
8253;BME280;61313;48.396;10.008;2024-01-06T01:21:27;95011.25;;;7.29;73.43
8253;BME280;61313;48.396;10.008;2024-01-06T01:23:52;95018.47;;;7.24;73.43
8253;BME280;61313;48.396;10.008;2024-01-06T01:26:18;95018.06;;;6.98;74.25
8253;BME280;61313;48.396;10.008;2024-01-06T01:28:43;95023.06;;;7.03;74.05
8253;BME280;61313;48.396;10.008;2024-01-06T01:31:08;95017.53;;;7.09;73.57
8253;BME280;61313;48.396;10.008;2024-01-06T01:33:34;95020.19;;;7.08;73.41
8253;BME280;61313;48.396;10.008;2024-01-06T01:35:59;95025.41;;;7.08;74.93
8253;BME280;61313;48.396;10.008;2024-01-06T01:38:24;95027.13;;;7.09;73.65
8253;BME280;61313;48.396;10.008;2024-01-06T01:40:50;95028.84;;;6.92;73.80
8253;BME280;61313;48.396;10.008;2024-01-06T01:43:18;95023.50;;;6.78;74.78
8253;BME280;61313;48.396;10.008;2024-01-06T01:45:48;95026.72;;;6.99;74.58
8253;BME280;61313;48.396;10.008;2024-01-06T01:48:15;95034.00;;;7.10;74.07
8253;BME280;61313;48.396;10.008;2024-01-06T01:50:40;95029.75;;;6.91;73.78
8253;BME280;61313;48.396;10.008;2024-01-06T01:53:06;95033.72;;;6.98;74.13
8253;BME280;61313;48.396;10.008;2024-01-06T01:55:31;95034.38;;;7.19;73.39
8253;BME280;61313;48.396;10.008;2024-01-06T01:57:57;95032.59;;;6.87;73.59
8253;BME280;61313;48.396;10.008;2024-01-06T02:00:22;95038.03;;;6.82;73.96
8253;BME280;61313;48.396;10.008;2024-01-06T02:02:48;95041.53;;;6.98;72.75
8253;BME280;61313;48.396;10.008;2024-01-06T02:05:13;95039.47;;;7.05;72.76
8253;BME280;61313;48.396;10.008;2024-01-06T02:07:39;95036.63;;;7.10;72.49
8253;BME280;61313;48.396;10.008;2024-01-06T02:10:05;95034.28;;;6.88;74.23
8253;BME280;61313;48.396;10.008;2024-01-06T02:12:31;95041.84;;;7.10;73.77
8253;BME280;61313;48.396;10.008;2024-01-06T02:14:56;95038.03;;;6.82;74.53
8253;BME280;61313;48.396;10.008;2024-01-06T02:17:22;95045.09;;;6.97;74.27
8253;BME280;61313;48.396;10.008;2024-01-06T02:19:47;95044.03;;;6.67;74.99
8253;BME280;61313;48.396;10.008;2024-01-06T02:22:12;95043.66;;;6.74;75.27
8253;BME280;61313;48.396;10.008;2024-01-06T02:24:38;95048.78;;;6.76;75.14
8253;BME280;61313;48.396;10.008;2024-01-06T02:27:03;95046.22;;;6.92;74.25
8253;BME280;61313;48.396;10.008;2024-01-06T02:29:29;95050.31;;;6.97;73.90
8253;BME280;61313;48.396;10.008;2024-01-06T02:31:54;95046.75;;;6.98;74.72
8253;BME280;61313;48.396;10.008;2024-01-06T02:34:19;95052.81;;;6.99;74.62
8253;BME280;61313;48.396;10.008;2024-01-06T02:36:45;95050.78;;;6.88;74.09
8253;BME280;61313;48.396;10.008;2024-01-06T02:39:10;95053.34;;;7.06;73.18
8253;BME280;61313;48.396;10.008;2024-01-06T02:41:36;95062.94;;;7.05;72.24
8253;BME280;61313;48.396;10.008;2024-01-06T02:44:02;95062.78;;;7.08;72.13
8253;BME280;61313;48.396;10.008;2024-01-06T02:46:28;95062.09;;;7.05;72.62
8253;BME280;61313;48.396;10.008;2024-01-06T02:48:54;95069.59;;;7.11;72.54
8253;BME280;61313;48.396;10.008;2024-01-06T02:51:19;95069.75;;;7.08;72.90
8253;BME280;61313;48.396;10.008;2024-01-06T02:53:45;95072.84;;;6.98;72.28
8253;BME280;61313;48.396;10.008;2024-01-06T02:56:11;95071.94;;;6.99;71.72
8253;BME280;61313;48.396;10.008;2024-01-06T02:58:36;95073.63;;;7.00;71.24
8253;BME280;61313;48.396;10.008;2024-01-06T03:01:02;95074.06;;;7.09;71.10
8253;BME280;61313;48.396;10.008;2024-01-06T03:03:27;95071.53;;;7.07;71.01
8253;BME280;61313;48.396;10.008;2024-01-06T03:05:53;95062.88;;;6.89;72.09
8253;BME280;61313;48.396;10.008;2024-01-06T03:08:18;95063.34;;;6.97;72.22
8253;BME280;61313;48.396;10.008;2024-01-06T03:10:43;95070.94;;;7.02;72.32
8253;BME280;61313;48.396;10.008;2024-01-06T03:13:09;95067.63;;;6.98;71.95
8253;BME280;61313;48.396;10.008;2024-01-06T03:15:34;95072.06;;;7.14;71.39
8253;BME280;61313;48.396;10.008;2024-01-06T03:17:59;95081.97;;;6.72;73.68
8253;BME280;61313;48.396;10.008;2024-01-06T03:20:25;95090.19;;;6.65;73.16
8253;BME280;61313;48.396;10.008;2024-01-06T03:22:50;95086.06;;;6.78;73.58
8253;BME280;61313;48.396;10.008;2024-01-06T03:25:15;95090.25;;;6.98;73.17
8253;BME280;61313;48.396;10.008;2024-01-06T03:27:41;95084.50;;;6.91;73.45
8253;BME280;61313;48.396;10.008;2024-01-06T03:30:07;95085.97;;;6.97;72.53
8253;BME280;61313;48.396;10.008;2024-01-06T03:32:32;95083.28;;;6.98;72.33
8253;BME280;61313;48.396;10.008;2024-01-06T03:34:57;95082.91;;;6.89;71.86
8253;BME280;61313;48.396;10.008;2024-01-06T03:37:23;95073.31;;;6.89;71.85
8253;BME280;61313;48.396;10.008;2024-01-06T03:39:49;95079.00;;;6.97;71.93
8253;BME280;61313;48.396;10.008;2024-01-06T03:42:14;95079.38;;;6.72;72.08
8253;BME280;61313;48.396;10.008;2024-01-06T03:44:40;95083.13;;;6.84;71.69
8253;BME280;61313;48.396;10.008;2024-01-06T03:47:05;95090.28;;;6.81;71.60
8253;BME280;61313;48.396;10.008;2024-01-06T03:49:31;95093.03;;;6.77;72.20
8253;BME280;61313;48.396;10.008;2024-01-06T03:51:56;95090.94;;;6.84;71.99
8253;BME280;61313;48.396;10.008;2024-01-06T03:54:21;95096.78;;;6.89;71.04
8253;BME280;61313;48.396;10.008;2024-01-06T03:56:47;95087.28;;;6.71;70.36
8253;BME280;61313;48.396;10.008;2024-01-06T03:59:13;95083.44;;;6.43;71.17
8253;BME280;61313;48.396;10.008;2024-01-06T04:01:38;95087.75;;;6.62;71.12
8253;BME280;61313;48.396;10.008;2024-01-06T04:04:04;95082.06;;;6.71;70.26
8253;BME280;61313;48.396;10.008;2024-01-06T04:06:30;95083.09;;;6.49;71.36
8253;BME280;61313;48.396;10.008;2024-01-06T04:08:57;95088.56;;;6.79;70.36
8253;BME280;61313;48.396;10.008;2024-01-06T04:11:22;95087.50;;;6.84;71.43
8253;BME280;61313;48.396;10.008;2024-01-06T04:13:48;95086.81;;;6.80;71.94
8253;BME280;61313;48.396;10.008;2024-01-06T04:16:13;95087.91;;;6.76;70.08
8253;BME280;61313;48.396;10.008;2024-01-06T04:18:38;95078.69;;;6.86;71.42
8253;BME280;61313;48.396;10.008;2024-01-06T04:21:04;95086.50;;;6.86;71.53
8253;BME280;61313;48.396;10.008;2024-01-06T04:23:34;95079.81;;;6.98;71.49
8253;BME280;61313;48.396;10.008;2024-01-06T04:25:59;95081.72;;;6.94;70.90
8253;BME280;61313;48.396;10.008;2024-01-06T04:28:25;95092.25;;;6.58;72.00
8253;BME280;61313;48.396;10.008;2024-01-06T04:30:51;95095.13;;;6.71;71.46
8253;BME280;61313;48.396;10.008;2024-01-06T04:33:16;95100.22;;;6.72;71.18
8253;BME280;61313;48.396;10.008;2024-01-06T04:35:42;95096.09;;;6.68;70.75
8253;BME280;61313;48.396;10.008;2024-01-06T04:38:07;95098.72;;;6.86;70.69
8253;BME280;61313;48.396;10.008;2024-01-06T04:40:32;95094.25;;;6.88;71.09
8253;BME280;61313;48.396;10.008;2024-01-06T04:42:58;95104.25;;;6.97;71.47
8253;BME280;61313;48.396;10.008;2024-01-06T04:45:23;95104.13;;;6.98;71.88
8253;BME280;61313;48.396;10.008;2024-01-06T04:47:50;95108.59;;;6.79;72.55
8253;BME280;61313;48.396;10.008;2024-01-06T04:50:15;95115.72;;;6.75;72.37
8253;BME280;61313;48.396;10.008;2024-01-06T04:52:41;95115.59;;;6.78;72.15
8253;BME280;61313;48.396;10.008;2024-01-06T04:55:06;95117.88;;;6.85;72.55
8253;BME280;61313;48.396;10.008;2024-01-06T04:57:32;95125.78;;;6.83;72.09
8253;BME280;61313;48.396;10.008;2024-01-06T04:59:57;95122.63;;;6.76;72.08
8253;BME280;61313;48.396;10.008;2024-01-06T05:02:23;95123.91;;;6.68;72.70
8253;BME280;61313;48.396;10.008;2024-01-06T05:04:48;95127.22;;;6.35;73.38
8253;BME280;61313;48.396;10.008;2024-01-06T05:07:14;95129.13;;;6.50;72.94
8253;BME280;61313;48.396;10.008;2024-01-06T05:09:39;95129.97;;;6.51;72.80
8253;BME280;61313;48.396;10.008;2024-01-06T05:12:05;95124.63;;;6.71;72.63
8253;BME280;61313;48.396;10.008;2024-01-06T05:14:30;95134.28;;;6.87;72.95
8253;BME280;61313;48.396;10.008;2024-01-06T05:16:55;95135.22;;;6.86;72.49
8253;BME280;61313;48.396;10.008;2024-01-06T05:19:21;95136.28;;;6.82;73.32
8253;BME280;61313;48.396;10.008;2024-01-06T05:21:47;95138.81;;;6.83;72.79
8253;BME280;61313;48.396;10.008;2024-01-06T05:24:13;95140.03;;;6.76;72.79
8253;BME280;61313;48.396;10.008;2024-01-06T05:26:38;95142.88;;;6.71;73.11
8253;BME280;61313;48.396;10.008;2024-01-06T05:29:03;95151.53;;;6.72;73.41
8253;BME280;61313;48.396;10.008;2024-01-06T05:31:29;95150.47;;;6.76;73.54
8253;BME280;61313;48.396;10.008;2024-01-06T05:33:54;95152.91;;;6.62;73.76
8253;BME280;61313;48.396;10.008;2024-01-06T05:36:19;95154.44;;;6.66;73.63
8253;BME280;61313;48.396;10.008;2024-01-06T05:38:47;95148.75;;;6.75;73.95
8253;BME280;61313;48.396;10.008;2024-01-06T05:41:13;95148.81;;;6.56;74.00
8253;BME280;61313;48.396;10.008;2024-01-06T05:43:38;95156.19;;;6.65;73.74
8253;BME280;61313;48.396;10.008;2024-01-06T05:46:04;95160.84;;;6.58;73.89
8253;BME280;61313;48.396;10.008;2024-01-06T05:48:29;95154.00;;;6.39;74.65
8253;BME280;61313;48.396;10.008;2024-01-06T05:50:55;95155.78;;;6.38;75.05
8253;BME280;61313;48.396;10.008;2024-01-06T05:53:20;95157.84;;;6.49;75.46
8253;BME280;61313;48.396;10.008;2024-01-06T05:55:46;95157.06;;;6.47;75.28
8253;BME280;61313;48.396;10.008;2024-01-06T05:58:11;95162.78;;;6.55;74.64
8253;BME280;61313;48.396;10.008;2024-01-06T06:00:37;95160.72;;;6.62;72.63
8253;BME280;61313;48.396;10.008;2024-01-06T06:03:02;95164.25;;;6.61;73.59
8253;BME280;61313;48.396;10.008;2024-01-06T06:05:28;95172.56;;;6.69;73.81
8253;BME280;61313;48.396;10.008;2024-01-06T06:07:53;95171.22;;;6.60;74.14
8253;BME280;61313;48.396;10.008;2024-01-06T06:10:19;95178.25;;;6.58;73.86
8253;BME280;61313;48.396;10.008;2024-01-06T06:12:45;95182.22;;;6.48;74.35
8253;BME280;61313;48.396;10.008;2024-01-06T06:15:11;95175.03;;;6.53;74.47
8253;BME280;61313;48.396;10.008;2024-01-06T06:17:36;95181.09;;;6.53;74.86
8253;BME280;61313;48.396;10.008;2024-01-06T06:20:02;95177.59;;;6.35;75.47
8253;BME280;61313;48.396;10.008;2024-01-06T06:22:28;95182.69;;;6.56;74.49
8253;BME280;61313;48.396;10.008;2024-01-06T06:24:57;95193.06;;;6.57;74.76
8253;BME280;61313;48.396;10.008;2024-01-06T06:27:23;95193.53;;;6.66;74.16
8253;BME280;61313;48.396;10.008;2024-01-06T06:29:48;95204.53;;;6.53;74.29
8253;BME280;61313;48.396;10.008;2024-01-06T06:32:14;95215.03;;;6.52;74.53
8253;BME280;61313;48.396;10.008;2024-01-06T06:34:39;95215.41;;;6.44;74.92
8253;BME280;61313;48.396;10.008;2024-01-06T06:37:04;95212.09;;;6.41;75.38
8253;BME280;61313;48.396;10.008;2024-01-06T06:39:33;95210.41;;;6.40;75.21
8253;BME280;61313;48.396;10.008;2024-01-06T06:41:59;95222.94;;;6.50;74.78
8253;BME280;61313;48.396;10.008;2024-01-06T06:44:25;95211.94;;;6.44;74.92
8253;BME280;61313;48.396;10.008;2024-01-06T06:46:50;95207.72;;;6.41;75.10
8253;BME280;61313;48.396;10.008;2024-01-06T06:49:15;95218.16;;;6.03;76.65
8253;BME280;61313;48.396;10.008;2024-01-06T06:51:41;95217.44;;;6.19;75.69
8253;BME280;61313;48.396;10.008;2024-01-06T06:54:12;95217.44;;;6.38;75.00
8253;BME280;61313;48.396;10.008;2024-01-06T06:56:37;95218.53;;;6.33;74.57
8253;BME280;61313;48.396;10.008;2024-01-06T06:59:03;95216.38;;;6.42;74.30
8253;BME280;61313;48.396;10.008;2024-01-06T07:01:28;95215.59;;;6.40;74.28
8253;BME280;61313;48.396;10.008;2024-01-06T07:03:54;95228.84;;;6.35;74.59
8253;BME280;61313;48.396;10.008;2024-01-06T07:06:19;95224.50;;;6.35;74.79
8253;BME280;61313;48.396;10.008;2024-01-06T07:08:45;95229.06;;;6.30;74.90
8253;BME280;61313;48.396;10.008;2024-01-06T07:11:10;95232.09;;;6.40;74.84
8253;BME280;61313;48.396;10.008;2024-01-06T07:13:37;95227.44;;;6.47;75.03
8253;BME280;61313;48.396;10.008;2024-01-06T07:16:02;95230.97;;;6.46;74.19
8253;BME280;61313;48.396;10.008;2024-01-06T07:18:28;95225.91;;;6.43;74.55
8253;BME280;61313;48.396;10.008;2024-01-06T07:20:53;95230.41;;;6.39;74.63
8253;BME280;61313;48.396;10.008;2024-01-06T07:23:19;95236.88;;;6.49;74.66
8253;BME280;61313;48.396;10.008;2024-01-06T07:25:44;95243.78;;;6.50;74.57
8253;BME280;61313;48.396;10.008;2024-01-06T07:28:09;95249.69;;;6.54;73.99
8253;BME280;61313;48.396;10.008;2024-01-06T07:30:35;95249.41;;;6.60;73.92
8253;BME280;61313;48.396;10.008;2024-01-06T07:33:00;95256.59;;;6.55;74.30
8253;BME280;61313;48.396;10.008;2024-01-06T07:35:26;95263.50;;;6.56;73.86
8253;BME280;61313;48.396;10.008;2024-01-06T07:37:51;95258.84;;;6.44;74.46
8253;BME280;61313;48.396;10.008;2024-01-06T07:40:16;95260.00;;;6.38;74.84
8253;BME280;61313;48.396;10.008;2024-01-06T07:42:44;95260.41;;;6.48;74.05
8253;BME280;61313;48.396;10.008;2024-01-06T07:45:09;95262.31;;;6.44;73.94
8253;BME280;61313;48.396;10.008;2024-01-06T07:47:35;95257.88;;;6.46;73.63
8253;BME280;61313;48.396;10.008;2024-01-06T07:50:00;95262.03;;;6.50;73.62
8253;BME280;61313;48.396;10.008;2024-01-06T07:52:26;95263.72;;;6.51;73.43
8253;BME280;61313;48.396;10.008;2024-01-06T07:54:51;95270.75;;;6.49;74.15
8253;BME280;61313;48.396;10.008;2024-01-06T07:57:16;95274.28;;;6.48;73.86
8253;BME280;61313;48.396;10.008;2024-01-06T07:59:42;95282.03;;;6.50;73.71
8253;BME280;61313;48.396;10.008;2024-01-06T08:02:07;95284.19;;;6.40;74.31
8253;BME280;61313;48.396;10.008;2024-01-06T08:04:34;95280.44;;;6.47;74.27
8253;BME280;61313;48.396;10.008;2024-01-06T08:06:59;95282.03;;;6.50;74.32
8253;BME280;61313;48.396;10.008;2024-01-06T08:09:25;95281.13;;;6.51;74.15
8253;BME280;61313;48.396;10.008;2024-01-06T08:11:50;95279.28;;;6.53;73.63
8253;BME280;61313;48.396;10.008;2024-01-06T08:14:15;95285.19;;;6.56;73.79
8253;BME280;61313;48.396;10.008;2024-01-06T08:16:42;95287.78;;;6.56;73.55
8253;BME280;61313;48.396;10.008;2024-01-06T08:19:08;95281.84;;;6.54;73.23
8253;BME280;61313;48.396;10.008;2024-01-06T08:21:33;95279.56;;;6.66;72.52
8253;BME280;61313;48.396;10.008;2024-01-06T08:23:59;95282.53;;;6.58;72.60
8253;BME280;61313;48.396;10.008;2024-01-06T08:26:25;95287.25;;;6.50;72.93
8253;BME280;61313;48.396;10.008;2024-01-06T08:28:51;95285.34;;;6.53;73.19
8253;BME280;61313;48.396;10.008;2024-01-06T08:31:16;95293.22;;;6.52;72.31
8253;BME280;61313;48.396;10.008;2024-01-06T08:33:42;95293.09;;;6.55;72.39
8253;BME280;61313;48.396;10.008;2024-01-06T08:36:07;95300.97;;;6.53;72.53
8253;BME280;61313;48.396;10.008;2024-01-06T08:38:33;95305.63;;;6.66;72.64
8253;BME280;61313;48.396;10.008;2024-01-06T08:40:58;95304.72;;;6.67;72.24
8253;BME280;61313;48.396;10.008;2024-01-06T08:43:24;95305.50;;;6.69;72.22
8253;BME280;61313;48.396;10.008;2024-01-06T08:45:49;95299.72;;;6.43;72.74
8253;BME280;61313;48.396;10.008;2024-01-06T08:48:16;95304.50;;;6.52;72.33
8253;BME280;61313;48.396;10.008;2024-01-06T08:50:43;95305.28;;;6.54;72.46
8253;BME280;61313;48.396;10.008;2024-01-06T08:53:10;95310.91;;;6.45;73.16
8253;BME280;61313;48.396;10.008;2024-01-06T08:55:36;95311.69;;;6.47;72.67
8253;BME280;61313;48.396;10.008;2024-01-06T08:58:01;95310.91;;;6.45;72.29
8253;BME280;61313;48.396;10.008;2024-01-06T09:00:26;95313.16;;;6.53;72.79
8253;BME280;61313;48.396;10.008;2024-01-06T09:02:52;95308.31;;;6.64;72.46
8253;BME280;61313;48.396;10.008;2024-01-06T09:05:17;95309.84;;;6.49;72.52
8253;BME280;61313;48.396;10.008;2024-01-06T09:07:42;95307.69;;;6.59;71.87
8253;BME280;61313;48.396;10.008;2024-01-06T09:10:08;95309.63;;;6.54;72.45
8253;BME280;61313;48.396;10.008;2024-01-06T09:12:35;95306.50;;;6.47;72.63
8253;BME280;61313;48.396;10.008;2024-01-06T09:15:00;95313.00;;;6.37;73.05
8253;BME280;61313;48.396;10.008;2024-01-06T09:17:25;95310.63;;;6.51;73.10
8253;BME280;61313;48.396;10.008;2024-01-06T09:19:51;95307.97;;;6.53;72.70
8253;BME280;61313;48.396;10.008;2024-01-06T09:22:19;95324.63;;;6.30;73.41
8253;BME280;61313;48.396;10.008;2024-01-06T09:24:44;95323.66;;;6.51;73.18
8253;BME280;61313;48.396;10.008;2024-01-06T09:27:09;95316.41;;;6.58;72.55
8253;BME280;61313;48.396;10.008;2024-01-06T09:29:35;95327.03;;;6.72;71.94
8253;BME280;61313;48.396;10.008;2024-01-06T09:32:00;95326.47;;;6.85;71.40
8253;BME280;61313;48.396;10.008;2024-01-06T09:34:26;95326.16;;;6.73;71.72
8253;BME280;61313;48.396;10.008;2024-01-06T09:36:51;95323.53;;;6.73;71.67
8253;BME280;61313;48.396;10.008;2024-01-06T09:39:16;95328.59;;;6.76;70.82
8253;BME280;61313;48.396;10.008;2024-01-06T09:41:42;95338.19;;;6.76;71.80
8253;BME280;61313;48.396;10.008;2024-01-06T09:44:08;95333.53;;;6.64;72.09
8253;BME280;61313;48.396;10.008;2024-01-06T09:46:34;95330.72;;;6.68;71.68
8253;BME280;61313;48.396;10.008;2024-01-06T09:49:01;95336.91;;;6.66;72.27
8253;BME280;61313;48.396;10.008;2024-01-06T09:51:26;95334.09;;;6.51;72.03
8253;BME280;61313;48.396;10.008;2024-01-06T09:54:00;95329.66;;;6.53;72.02
8253;BME280;61313;48.396;10.008;2024-01-06T09:56:28;95326.63;;;6.44;72.54
8253;BME280;61313;48.396;10.008;2024-01-06T09:58:54;95333.88;;;6.56;72.12
8253;BME280;61313;48.396;10.008;2024-01-06T10:01:20;95335.50;;;6.58;71.63
8253;BME280;61313;48.396;10.008;2024-01-06T10:03:46;95334.38;;;6.64;71.23
8253;BME280;61313;48.396;10.008;2024-01-06T10:06:13;95332.34;;;6.71;70.71
8253;BME280;61313;48.396;10.008;2024-01-06T10:08:39;95337.84;;;6.65;70.96
8253;BME280;61313;48.396;10.008;2024-01-06T10:11:07;95337.69;;;6.68;71.57
8253;BME280;61313;48.396;10.008;2024-01-06T10:13:36;95340.09;;;6.72;71.32
8253;BME280;61313;48.396;10.008;2024-01-06T10:16:09;95339.81;;;6.78;71.43
8253;BME280;61313;48.396;10.008;2024-01-06T10:18:53;95331.69;;;6.66;71.51
8253;BME280;61313;48.396;10.008;2024-01-06T10:21:20;95335.91;;;6.68;71.38
8253;BME280;61313;48.396;10.008;2024-01-06T10:23:48;95334.59;;;6.60;71.65
8253;BME280;61313;48.396;10.008;2024-01-06T10:26:13;95333.53;;;6.64;72.05
8253;BME280;61313;48.396;10.008;2024-01-06T10:28:39;95333.41;;;6.67;72.21
8253;BME280;61313;48.396;10.008;2024-01-06T10:31:09;95329.84;;;6.49;72.22
8253;BME280;61313;48.396;10.008;2024-01-06T10:33:38;95332.09;;;6.56;72.07
8253;BME280;61313;48.396;10.008;2024-01-06T10:36:05;95329.66;;;6.53;72.16
8253;BME280;61313;48.396;10.008;2024-01-06T10:38:40;95321.84;;;6.53;71.99
8253;BME280;61313;48.396;10.008;2024-01-06T10:41:09;95334.09;;;6.51;73.05
8253;BME280;61313;48.396;10.008;2024-01-06T10:43:41;95329.28;;;6.61;72.43
8253;BME280;61313;48.396;10.008;2024-01-06T10:46:09;95333.03;;;6.55;72.28
8253;BME280;61313;48.396;10.008;2024-01-06T10:48:42;95329.28;;;6.61;71.92
8253;BME280;61313;48.396;10.008;2024-01-06T10:51:14;95322.34;;;6.62;72.40
8253;BME280;61313;48.396;10.008;2024-01-06T10:53:41;95327.47;;;6.63;72.26
8253;BME280;61313;48.396;10.008;2024-01-06T10:56:09;95325.44;;;6.70;72.30
8253;BME280;61313;48.396;10.008;2024-01-06T10:58:36;95329.75;;;6.71;71.93
8253;BME280;61313;48.396;10.008;2024-01-06T11:01:09;95328.59;;;6.57;72.30
8253;BME280;61313;48.396;10.008;2024-01-06T11:03:36;95326.78;;;6.60;72.66
8253;BME280;61313;48.396;10.008;2024-01-06T11:06:03;95330.16;;;6.62;73.25
8253;BME280;61313;48.396;10.008;2024-01-06T11:08:32;95330.28;;;6.58;72.74
8253;BME280;61313;48.396;10.008;2024-01-06T11:10:59;95327.97;;;6.71;72.34
8253;BME280;61313;48.396;10.008;2024-01-06T11:13:24;95321.16;;;6.69;72.18
8253;BME280;61313;48.396;10.008;2024-01-06T11:15:53;95330.44;;;6.74;72.60
8253;BME280;61313;48.396;10.008;2024-01-06T11:18:38;95330.59;;;6.71;72.58
8253;BME280;61313;48.396;10.008;2024-01-06T11:23:38;95322.56;;;6.76;72.76
8253;BME280;61313;48.396;10.008;2024-01-06T11:26:06;95324.03;;;6.63;72.90
8253;BME280;61313;48.396;10.008;2024-01-06T11:28:46;95326.22;;;6.72;72.55
8253;BME280;61313;48.396;10.008;2024-01-06T11:31:12;95318.59;;;6.67;72.50
8253;BME280;61313;48.396;10.008;2024-01-06T11:33:44;95312.91;;;6.59;72.73
8253;BME280;61313;48.396;10.008;2024-01-06T11:36:14;95312.53;;;6.67;72.78
8253;BME280;61313;48.396;10.008;2024-01-06T11:38:40;95311.34;;;6.74;72.62
8253;BME280;61313;48.396;10.008;2024-01-06T11:41:10;95308.59;;;6.77;72.78
8253;BME280;61313;48.396;10.008;2024-01-06T11:43:38;95303.78;;;6.87;71.56
8253;BME280;61313;48.396;10.008;2024-01-06T11:46:05;95303.78;;;6.87;71.85
8253;BME280;61313;48.396;10.008;2024-01-06T11:48:32;95305.78;;;6.82;72.53
8253;BME280;61313;48.396;10.008;2024-01-06T11:50:58;95300.00;;;6.75;72.36
8253;BME280;61313;48.396;10.008;2024-01-06T11:53:26;95307.41;;;6.65;72.56
8253;BME280;61313;48.396;10.008;2024-01-06T11:55:52;95304.09;;;6.81;71.95
8253;BME280;61313;48.396;10.008;2024-01-06T11:58:18;95298.09;;;6.78;72.90
8253;BME280;61313;48.396;10.008;2024-01-06T12:00:43;95295.75;;;6.72;72.34
8253;BME280;61313;48.396;10.008;2024-01-06T12:03:09;95297.16;;;6.79;72.33
8253;BME280;61313;48.396;10.008;2024-01-06T12:05:34;95288.31;;;6.65;72.48
8253;BME280;61313;48.396;10.008;2024-01-06T12:08:02;95294.78;;;6.56;72.93
8253;BME280;61313;48.396;10.008;2024-01-06T12:10:32;95288.31;;;6.65;72.39
8253;BME280;61313;48.396;10.008;2024-01-06T12:13:02;95285.91;;;6.60;72.23
8253;BME280;61313;48.396;10.008;2024-01-06T12:15:29;95292.38;;;6.70;72.28
8253;BME280;61313;48.396;10.008;2024-01-06T12:17:55;95290.19;;;6.61;72.14
8253;BME280;61313;48.396;10.008;2024-01-06T12:20:22;95284.63;;;6.88;71.37
8253;BME280;61313;48.396;10.008;2024-01-06T12:22:52;95281.66;;;6.95;71.14
8253;BME280;61313;48.396;10.008;2024-01-06T12:25:34;95285.31;;;6.91;71.54
8253;BME280;61313;48.396;10.008;2024-01-06T12:28:05;95285.41;;;6.90;71.67
8253;BME280;61313;48.396;10.008;2024-01-06T12:30:30;95285.75;;;6.82;71.56
8253;BME280;61313;48.396;10.008;2024-01-06T12:32:56;95280.25;;;6.88;72.13
8253;BME280;61313;48.396;10.008;2024-01-06T12:35:22;95283.34;;;6.77;71.69
8253;BME280;61313;48.396;10.008;2024-01-06T12:37:48;95277.91;;;6.82;71.90
8253;BME280;61313;48.396;10.008;2024-01-06T12:40:14;95275.59;;;6.95;72.15
8253;BME280;61313;48.396;10.008;2024-01-06T12:42:42;95271.03;;;7.17;71.60
8253;BME280;61313;48.396;10.008;2024-01-06T12:45:08;95272.47;;;7.06;72.06
8253;BME280;61313;48.396;10.008;2024-01-06T12:47:34;95270.06;;;7.01;70.01
8253;BME280;61313;48.396;10.008;2024-01-06T12:50:00;95278.53;;;6.87;67.19
8253;BME280;61313;48.396;10.008;2024-01-06T12:52:25;95276.94;;;6.85;66.76
8253;BME280;61313;48.396;10.008;2024-01-06T12:54:51;95272.13;;;6.94;65.14
8253;BME280;61313;48.396;10.008;2024-01-06T12:57:17;95266.16;;;6.92;63.96
8253;BME280;61313;48.396;10.008;2024-01-06T12:59:43;95271.47;;;7.08;64.30
8253;BME280;61313;48.396;10.008;2024-01-06T13:02:08;95268.00;;;6.90;64.54
8253;BME280;61313;48.396;10.008;2024-01-06T13:04:34;95267.41;;;7.03;64.64
8253;BME280;61313;48.396;10.008;2024-01-06T13:07:00;95273.66;;;6.98;63.64